Tullahassee, Oklahoma
Current Conditions -  °F | °C
As of 5:53 PM on Thursday 18 Dec 2014 (Local Time) from KMKO Reporting Station
Haze Haze  
Wind Chill: 38°   Ceiling: 800
Heat Index: 41°   Visibility: 6mi
Dew Point: 38°   Wind: 5mph
Humidity: 89%   Direction: 10°N
Pressure: 30.2"   Gusts: NA
Location:  35.84°N, 95.44°W
Report Text: KMKO 182353Z AUTO 01004KT 6SM BR OVC008 05/03 A3020 RMK AO2 CIG 005V011 SLP231 T00500033 10050 20039 53012
Loading
Personal Weather Stations






























Interactive Weather Map New forecast layout! Learn more

10-Day Weather Forecast

Advertisements
Track Severe Weather on mobile